Time;durP1;ratioP1;P1;durP2;ratioP2;P2;SDS_P1;SDS_P2;PMS_P1;PMS_P2;Temp;Humidity;BMP_temperature;BMP_pressure;BME280_temperature;BME280_humidity;BME280_pressure;Samples;Min_cycle;Max_cycle;Signal;HPM_P1;HPM_P2
2023/03/16 00:02:09;;;;;;;7.28;1.77;;;3.50;99.90;;;;;;5041060;28;20037;-81
2023/03/16 00:04:37;;;;;;;3.75;1.60;;;7.40;99.90;;;;;;5041693;28;20577;-82
2023/03/16 00:07:08;;;;;;;7.22;1.67;;;3.40;99.90;;;;;;5053156;28;20596;-82
2023/03/16 00:09:35;;;;;;;2.45;1.25;;;;;;;;;;5080872;28;20043;-83
2023/03/16 00:12:02;;;;;;;4.93;1.33;;;3.60;99.90;;;;;;5041206;28;20475;-81
2023/03/16 00:14:28;;;;;;;4.22;1.20;;;3.70;99.90;;;;;;5065002;28;20047;-82
2023/03/16 00:17:47;;;;;;;4.03;1.27;;;7.30;99.90;;;;;;5060943;28;20044;-82
2023/03/16 00:20:48;;;;;;;4.97;1.67;;;6.40;99.90;;;;;;5045673;28;20052;-81
2023/03/16 00:24:57;;;;;;;4.72;1.48;;;3.80;99.90;;;;;;5066109;28;20035;-83
2023/03/16 00:36:18;;;;;;;2.83;1.20;;;3.70;99.90;;;;;;4872238;29;21044;-84
2023/03/16 00:47:42;;;;;;;3.95;1.40;;;3.60;99.90;;;;;;4829947;29;20071;-84
2023/03/16 01:31:32;;;;;;;7.72;2.05;;;3.70;99.90;;;;;;5055460;28;20048;-83
2023/03/16 01:35:22;;;;;;;5.63;1.77;;;3.70;99.90;;;;;;4990946;28;20807;-84
2023/03/16 01:39:20;;;;;;;3.90;1.27;;;3.70;99.90;;;;;;4980279;28;20042;-83
2023/03/16 01:42:52;;;;;;;4.43;1.40;;;4.60;99.90;;;;;;4946018;29;20059;-83
2023/03/16 01:50:33;;;;;;;4.70;1.90;;;3.60;99.90;;;;;;4875847;29;20054;-84
2023/03/16 01:54:26;;;;;;;5.90;1.67;;;3.60;99.90;;;;;;4823251;29;20053;-83
2023/03/16 02:09:32;;;;;;;4.45;1.65;;;3.40;99.90;;;;;;4878003;29;20523;-83
2023/03/16 04:43:09;;;;;;;4.13;2.88;;;3.80;99.90;;;;;;5077258;28;20051;-86
2023/03/16 04:54:56;;;;;;;6.30;2.50;;;3.80;99.90;;;;;;4985174;28;20086;-86
2023/03/16 05:02:31;;;;;;;4.78;2.20;;;3.80;99.90;;;;;;4964941;28;20046;-86
2023/03/16 05:06:26;;;;;;;6.32;3.17;;;3.80;99.90;;;;;;4963937;28;20054;-87
2023/03/16 05:21:50;;;;;;;3.25;2.65;;;3.90;99.90;;;;;;4871637;29;20044;-86
2023/03/16 05:29:30;;;;;;;4.13;2.58;;;3.90;99.90;;;;;;4804713;29;20107;-87
2023/03/16 05:33:12;;;;;;;4.82;2.88;;;4.00;99.90;;;;;;4764655;30;20226;-86
2023/03/16 06:50:23;;;;;;;5.47;3.05;;;4.10;99.90;;;;;;5068154;28;20056;-85
2023/03/16 08:20:59;;;;;;;4.57;3.45;;;4.70;99.90;;;;;;5004865;28;20092;-85
2023/03/16 08:24:54;;;;;;;5.38;3.30;;;4.90;99.90;;;;;;5030265;28;20106;-85
2023/03/16 08:52:26;;;;;;;4.60;3.10;;;4.80;99.90;;;;;;4943329;29;20130;-87
2023/03/16 09:04:20;;;;;;;5.97;3.22;;;4.80;99.90;;;;;;4898129;29;20049;-84
2023/03/16 09:07:22;;;;;;;9.52;3.78;;;4.80;99.90;;;;;;4903993;28;20588;-82
2023/03/16 09:09:52;;;;;;;4.22;3.22;;;;;;;;;;4917707;29;20519;-84
2023/03/16 09:12:19;;;;;;;6.63;3.28;;;4.90;99.90;;;;;;4989346;28;20046;-83
2023/03/16 09:14:45;;;;;;;10.20;3.67;;;4.90;99.90;;;;;;4984254;28;20038;-83
2023/03/16 09:17:11;;;;;;;8.95;3.30;;;7.80;99.90;;;;;;4993298;28;20053;-84
2023/03/16 09:19:37;;;;;;;5.07;3.20;;;4.90;99.90;;;;;;5018759;28;20136;-84
2023/03/16 09:22:03;;;;;;;6.63;3.85;;;4.20;99.90;;;;;;4994933;28;20093;-84
2023/03/16 09:24:29;;;;;;;8.10;3.90;;;4.90;99.90;;;;;;5006585;28;20049;-85
2023/03/16 09:26:55;;;;;;;5.03;3.58;;;5.00;99.90;;;;;;4983056;28;20065;-85
2023/03/16 09:29:21;;;;;;;5.13;3.63;;;4.70;99.90;;;;;;5030983;28;20455;-85
2023/03/16 09:31:47;;;;;;;5.22;3.17;;;4.90;99.90;;;;;;5057609;28;20547;-85
2023/03/16 09:34:13;;;;;;;7.60;3.78;;;;;;;;;;5073342;28;20055;-84
2023/03/16 09:36:39;;;;;;;9.05;3.58;;;;;;;;;;5074648;28;20040;-84
2023/03/16 09:39:05;;;;;;;7.53;3.83;;;5.00;99.90;;;;;;5098190;28;20039;-85
2023/03/16 09:41:54;;;;;;;4.95;3.65;;;9.00;99.90;;;;;;5075536;28;20399;-85
2023/03/16 09:44:38;;;;;;;7.07;3.88;;;9.70;99.90;;;;;;5092638;28;20104;-84
2023/03/16 09:47:07;;;;;;;7.38;3.55;;;5.20;99.90;;;;;;5091260;28;20066;-86
2023/03/16 09:49:41;;;;;;;5.22;3.67;;;5.20;99.90;;;;;;5089644;28;20044;-86
2023/03/16 09:52:19;;;;;;;9.27;4.30;;;5.20;99.90;;;;;;5075734;28;20408;-85
2023/03/16 09:54:53;;;;;;;8.80;3.65;;;7.20;99.90;;;;;;5092562;28;20062;-85
2023/03/16 09:57:33;;;;;;;5.65;3.78;;;5.20;99.90;;;;;;5092080;28;20036;-85
2023/03/16 10:00:22;;;;;;;5.47;3.70;;;5.20;99.90;;;;;;5075317;28;20043;-85
2023/03/16 10:02:48;;;;;;;9.98;4.00;;;5.30;99.90;;;;;;5074873;28;20049;-86
2023/03/16 10:05:16;;;;;;;5.22;3.70;;;5.20;99.90;;;;;;5091871;28;20139;-87
2023/03/16 10:08:06;;;;;;;9.80;3.67;;;7.70;99.90;;;;;;5076255;28;20031;-84
2023/03/16 10:10:45;;;;;;;5.75;4.00;;;5.30;99.90;;;;;;5088779;28;20039;-84
2023/03/16 10:13:26;;;;;;;6.82;3.85;;;5.30;99.90;;;;;;5098339;28;20047;-83
2023/03/16 10:15:55;;;;;;;8.68;3.70;;;5.30;99.90;;;;;;5091641;28;20040;-84
2023/03/16 10:18:34;;;;;;;6.20;3.63;;;5.30;99.90;;;;;;5088183;28;20067;-84
2023/03/16 10:21:01;;;;;;;5.13;3.85;;;5.20;99.90;;;;;;5091743;28;20406;-84
2023/03/16 10:23:30;;;;;;;7.93;4.35;;;5.10;99.90;;;;;;5071382;28;20405;-84
2023/03/16 10:25:56;;;;;;;9.45;4.30;;;5.20;99.90;;;;;;5090865;28;20122;-84
2023/03/16 10:28:25;;;;;;;7.03;3.67;;;5.40;99.90;;;;;;5075791;27;20118;-83
2023/03/16 10:30:53;;;;;;;4.75;3.83;;;5.30;99.90;;;;;;5095495;28;20082;-84
2023/03/16 10:33:35;;;;;;;6.13;3.75;;;5.40;99.90;;;;;;5073681;28;20028;-84
2023/03/16 10:36:33;;;;;;;5.18;4.15;;;7.90;99.90;;;;;;5090549;28;20112;-85
2023/03/16 10:39:05;;;;;;;7.30;3.65;;;5.10;99.90;;;;;;5091123;28;20411;-85
2023/03/16 10:41:36;;;;;;;6.72;3.97;;;5.40;99.90;;;;;;5091827;28;20027;-85
2023/03/16 10:44:10;;;;;;;5.95;4.32;;;8.20;99.90;;;;;;5090888;28;20111;-84
2023/03/16 10:46:41;;;;;;;7.60;4.05;;;5.30;99.90;;;;;;5075343;28;20360;-83
2023/03/16 10:49:34;;;;;;;6.25;3.85;;;5.30;99.90;;;;;;5074172;28;20040;-85
2023/03/16 10:52:26;;;;;;;6.88;3.70;;;7.00;99.90;;;;;;5072024;28;20078;-84
2023/03/16 10:54:59;;;;;;;7.43;4.07;;;6.80;99.90;;;;;;5073086;28;20044;-83
2023/03/16 10:57:35;;;;;;;5.95;3.70;;;5.50;99.90;;;;;;5101154;28;20111;-84
2023/03/16 11:00:20;;;;;;;8.25;4.05;;;5.50;99.90;;;;;;5090719;28;20039;-84
2023/03/16 11:02:50;;;;;;;6.72;3.90;;;5.50;99.90;;;;;;5079368;27;20126;-84
2023/03/16 11:05:16;;;;;;;8.77;4.13;;;8.70;99.90;;;;;;5090532;28;21437;-84
2023/03/16 11:07:50;;;;;;;4.18;3.05;;;6.70;99.90;;;;;;5091148;28;20235;-83
2023/03/16 11:10:32;;;;;;;7.75;3.60;;;5.30;99.90;;;;;;5073776;28;20051;-84
2023/03/16 11:13:13;;;;;;;4.50;3.08;;;5.70;99.90;;;;;;5090594;28;20043;-84
2023/03/16 11:15:46;;;;;;;4.72;3.45;;;5.80;99.90;;;;;;5073841;28;20135;-83
2023/03/16 11:18:28;;;;;;;5.38;3.20;;;8.20;99.90;;;;;;5073585;28;20114;-82
2023/03/16 11:20:54;;;;;;;10.30;3.33;;;5.90;99.90;;;;;;5076473;28;20438;-84
2023/03/16 11:23:31;;;;;;;6.15;2.95;;;7.20;99.90;;;;;;5090207;28;20041;-85
2023/03/16 11:26:02;;;;;;;5.85;3.40;;;6.00;99.90;;;;;;5072966;28;20534;-84
2023/03/16 11:28:37;;;;;;;5.25;2.50;;;5.90;99.90;;;;;;5090351;28;20087;-84
2023/03/16 11:31:27;;;;;;;6.80;2.97;;;6.10;99.90;;;;;;5090251;28;20032;-84
2023/03/16 11:33:54;;;;;;;5.10;3.97;;;6.00;99.90;;;;;;5072522;28;20035;-84
2023/03/16 11:36:48;;;;;;;3.38;2.80;;;6.20;99.90;;;;;;5073067;28;20092;-84
2023/03/16 11:39:13;;;;;;;6.53;3.13;;;8.80;99.90;;;;;;5090192;28;20065;-85
2023/03/16 11:41:58;;;;;;;6.82;2.60;;;8.40;99.90;;;;;;5073155;28;20043;-84
2023/03/16 11:44:32;;;;;;;8.15;3.10;;;7.80;99.90;;;;;;5082368;28;20499;-85
2023/03/16 11:47:00;;;;;;;3.50;2.80;;;6.40;99.90;;;;;;5073303;28;20031;-85
2023/03/16 11:50:08;;;;;;;7.68;2.90;;;8.80;99.90;;;;;;5090058;28;20135;-85
2023/03/16 11:52:42;;;;;;;6.72;3.53;;;6.60;99.90;;;;;;5043120;28;20574;-83
2023/03/16 11:55:18;;;;;;;;;;;6.60;99.90;;;;;;5066507;28;20407;-85
2023/03/16 11:57:50;;;;;;;4.05;2.58;;;6.70;99.90;;;;;;5097726;28;19916;-84
2023/03/16 12:00:52;;;;;;;3.78;2.88;;;8.20;99.90;;;;;;5085237;28;20494;-84
2023/03/16 12:03:40;;;;;;;3.67;2.65;;;6.80;99.90;;;;;;5076210;28;20075;-84
2023/03/16 12:06:24;;;;;;;5.72;2.72;;;7.00;99.90;;;;;;5073860;28;20108;-84
2023/03/16 12:09:23;;;;;;;3.65;2.53;;;7.00;99.90;;;;;;5101600;28;20189;-84
2023/03/16 12:12:04;;;;;;;3.88;3.00;;;7.10;99.90;;;;;;5107564;28;20095;-84
2023/03/16 12:15:02;;;;;;;3.85;2.75;;;7.20;99.90;;;;;;5101195;28;20466;-84
2023/03/16 12:17:31;;;;;;;4.28;2.55;;;7.50;99.90;;;;;;5062610;28;20490;-84
2023/03/16 12:20:04;;;;;;;5.82;3.15;;;7.20;99.90;;;;;;5073267;28;20495;-84
2023/03/16 12:22:43;;;;;;;4.05;2.90;;;7.30;99.90;;;;;;5066439;28;20127;-83
2023/03/16 12:25:20;;;;;;;4.60;2.78;;;7.30;99.90;;;;;;5108018;28;20042;-84
2023/03/16 12:27:51;;;;;;;5.78;2.55;;;7.40;99.90;;;;;;5092122;28;20059;-84
2023/03/16 12:30:36;;;;;;;5.13;3.03;;;8.70;99.90;;;;;;5091850;28;20095;-84
2023/03/16 12:33:23;;;;;;;3.45;2.53;;;7.60;99.90;;;;;;5109439;28;20044;-84
2023/03/16 12:36:15;;;;;;;2.63;2.10;;;6.30;99.90;;;;;;5107643;28;20036;-84
2023/03/16 12:38:44;;;;;;;5.82;2.28;;;7.90;99.90;;;;;;5086578;28;20043;-84
2023/03/16 12:41:33;;;;;;;4.07;2.53;;;9.90;99.90;;;;;;5076408;28;20382;-84
2023/03/16 12:44:17;;;;;;;5.45;2.47;;;8.00;99.90;;;;;;5093601;28;20050;-84
2023/03/16 12:46:58;;;;;;;5.80;2.70;;;11.00;99.90;;;;;;5087015;28;20043;-83
2023/03/16 12:49:25;;;;;;;3.25;2.95;;;8.00;99.90;;;;;;5102167;28;20131;-84
2023/03/16 12:52:03;;;;;;;3.65;2.65;;;7.90;99.90;;;;;;5078665;28;20042;-83
2023/03/16 12:54:29;;;;;;;3.75;2.40;;;8.00;99.90;;;;;;5088584;28;20051;-84
2023/03/16 12:57:07;;;;;;;4.47;2.22;;;8.00;99.90;;;;;;5104323;28;20031;-83
2023/03/16 12:59:41;;;;;;;4.72;2.97;;;8.10;99.90;;;;;;5081005;28;20044;-83
2023/03/16 13:02:18;;;;;;;5.95;2.30;;;11.40;99.90;;;;;;5077627;28;20044;-82
2023/03/16 13:04:47;;;;;;;2.75;2.05;;;10.10;99.90;;;;;;5092723;28;20036;-84
2023/03/16 13:07:24;;;;;;;3.85;2.10;;;8.70;99.90;;;;;;5110331;28;20035;-83
2023/03/16 13:09:57;;;;;;;4.78;2.60;;;9.10;99.90;;;;;;5075911;28;20057;-84
2023/03/16 13:12:31;;;;;;;3.58;2.30;;;8.00;99.90;;;;;;5092044;28;20079;-84
2023/03/16 13:14:57;;;;;;;3.97;2.55;;;11.00;99.90;;;;;;5092112;28;20584;-84
2023/03/16 13:17:31;;;;;;;5.28;2.22;;;8.00;99.90;;;;;;5091878;28;20588;-84
2023/03/16 13:20:12;;;;;;;4.68;2.40;;;8.00;99.90;;;;;;5081977;28;20805;-85
2023/03/16 13:22:42;;;;;;;5.57;2.38;;;8.10;99.90;;;;;;5070055;28;20391;-84
2023/03/16 13:25:27;;;;;;;7.55;2.80;;;8.10;99.90;;;;;;5110525;28;20054;-84
2023/03/16 13:27:54;;;;;;;5.13;2.30;;;8.10;99.90;;;;;;5110299;28;20104;-83
2023/03/16 13:30:27;;;;;;;3.50;2.28;;;8.10;99.90;;;;;;5092178;28;20059;-83
2023/03/16 13:32:58;;;;;;;3.35;2.15;;;8.20;99.90;;;;;;5092296;28;20151;-83
2023/03/16 13:35:29;;;;;;;3.42;2.35;;;8.20;99.90;;;;;;5093091;28;20078;-84
2023/03/16 13:38:04;;;;;;;3.95;2.63;;;8.30;99.90;;;;;;5092438;28;20576;-83
2023/03/16 13:40:31;;;;;;;2.50;2.00;;;8.50;99.90;;;;;;5084707;28;20344;-83
2023/03/16 13:42:58;;;;;;;2.63;2.22;;;11.50;99.90;;;;;;5090672;28;20395;-84
2023/03/16 13:45:31;;;;;;;5.47;2.75;;;11.40;99.90;;;;;;5091863;28;20050;-83
2023/03/16 13:47:58;;;;;;;6.15;2.58;;;8.50;99.90;;;;;;5096131;28;20035;-83
2023/03/16 13:50:23;;;;;;;10.10;4.28;;;9.50;99.90;;;;;;5110462;28;20035;-84
2023/03/16 13:52:59;;;;;;;4.93;3.25;;;8.60;99.90;;;;;;5101136;27;20039;-83
2023/03/16 13:55:34;;;;;;;3.03;2.38;;;8.70;99.90;;;;;;5091197;28;20044;-83
2023/03/16 13:58:00;;;;;;;3.45;2.17;;;8.80;99.90;;;;;;5110002;28;20061;-84
2023/03/16 14:00:31;;;;;;;3.35;2.42;;;8.80;99.90;;;;;;5073166;28;20108;-84
2023/03/16 14:03:00;;;;;;;6.13;2.72;;;9.00;99.90;;;;;;5069059;28;20062;-84
2023/03/16 14:05:28;;;;;;;6.80;1.90;;;10.10;99.90;;;;;;5091999;28;20050;-84
2023/03/16 14:07:59;;;;;;;5.10;2.67;;;9.80;99.90;;;;;;5072128;28;20139;-84
2023/03/16 14:10:33;;;;;;;4.50;2.05;;;9.00;99.90;;;;;;5107768;28;20048;-84
2023/03/16 14:13:24;;;;;;;2.80;1.85;;;8.00;99.90;;;;;;5091528;28;20115;-84
2023/03/16 14:15:55;;;;;;;2.75;2.10;;;9.00;99.90;;;;;;5089315;28;20053;-84
2023/03/16 14:18:29;;;;;;;4.43;2.58;;;8.80;99.90;;;;;;5091969;28;20102;-84
2023/03/16 14:20:55;;;;;;;5.30;2.67;;;9.70;99.90;;;;;;5092190;28;20042;-83
2023/03/16 14:23:33;;;;;;;3.22;1.95;;;9.00;99.90;;;;;;5091129;28;20038;-83
2023/03/16 14:25:58;;;;;;;4.25;2.00;;;9.10;99.90;;;;;;5091442;28;20044;-83
2023/03/16 14:28:31;;;;;;;4.78;2.60;;;9.00;99.90;;;;;;5091055;28;20040;-84
2023/03/16 14:31:08;;;;;;;5.57;2.25;;;9.00;99.90;;;;;;5071128;28;20421;-84
2023/03/16 14:33:36;;;;;;;3.13;2.30;;;9.10;99.90;;;;;;5084430;28;20350;-84
2023/03/16 14:36:16;;;;;;;3.47;2.33;;;11.80;99.90;;;;;;5077848;28;20046;-84
2023/03/16 14:38:47;;;;;;;3.53;2.38;;;9.10;99.90;;;;;;5108692;28;20035;-84
2023/03/16 14:41:30;;;;;;;4.15;2.30;;;10.40;99.90;;;;;;5108174;28;20039;-84
2023/03/16 14:44:00;;;;;;;4.15;2.42;;;9.20;99.90;;;;;;5088275;28;20387;-84
2023/03/16 14:46:29;;;;;;;3.60;2.35;;;11.60;99.90;;;;;;5090858;28;20411;-84
2023/03/16 14:49:07;;;;;;;4.75;2.25;;;12.10;99.90;;;;;;5072500;28;20032;-84
2023/03/16 14:51:36;;;;;;;7.30;2.50;;;9.10;99.90;;;;;;5108259;28;20039;-84
2023/03/16 14:54:06;;;;;;;4.68;1.95;;;11.20;99.90;;;;;;5072530;28;20039;-85
2023/03/16 14:56:35;;;;;;;4.72;2.70;;;9.20;99.90;;;;;;5085299;28;20487;-84
2023/03/16 14:59:01;;;;;;;3.83;2.45;;;11.40;99.90;;;;;;5072544;28;20036;-84
2023/03/16 15:01:26;;;;;;;4.00;2.28;;;10.30;99.90;;;;;;5090977;28;20487;-83
2023/03/16 15:03:52;;;;;;;5.00;2.58;;;11.80;99.90;;;;;;5087039;28;20032;-85
2023/03/16 15:06:18;;;;;;;3.00;2.20;;;11.00;99.90;;;;;;5072646;28;20537;-85
2023/03/16 15:08:49;;;;;;;4.60;2.00;;;9.20;99.90;;;;;;5102225;28;20032;-84
2023/03/16 15:11:20;;;;;;;3.42;2.40;;;9.00;99.90;;;;;;5088327;28;20061;-84
2023/03/16 15:16:13;;;;;;;3.85;2.70;;;9.20;99.90;;;;;;5107823;28;20044;-84
2023/03/16 15:18:39;;;;;;;5.30;3.00;;;9.20;99.90;;;;;;5104523;28;20070;-84
2023/03/16 15:21:28;;;;;;;9.05;3.00;;;9.10;99.90;;;;;;5102356;28;20034;-83
2023/03/16 15:23:57;;;;;;;2.85;2.35;;;11.70;99.90;;;;;;5089750;28;20363;-84
2023/03/16 15:26:26;;;;;;;3.78;2.60;;;9.10;99.90;;;;;;5072168;28;20035;-85
2023/03/16 15:28:52;;;;;;;4.43;2.72;;;10.90;99.90;;;;;;5067041;28;20048;-84
2023/03/16 15:31:18;;;;;;;2.95;2.30;;;8.60;99.90;;;;;;5088022;28;20054;-84
2023/03/16 15:33:44;;;;;;;4.70;2.80;;;9.20;99.90;;;;;;5089459;28;20387;-83
2023/03/16 15:36:26;;;;;;;4.75;2.50;;;;;;;;;;5068247;28;20048;-84
2023/03/16 15:38:54;;;;;;;4.35;2.85;;;9.10;99.90;;;;;;5088352;28;20694;-84
2023/03/16 15:41:21;;;;;;;5.57;2.90;;;9.10;99.90;;;;;;5076174;28;20066;-84
2023/03/16 15:43:47;;;;;;;8.93;2.50;;;12.00;99.90;;;;;;5109223;28;20027;-83
2023/03/16 15:46:13;;;;;;;3.95;2.70;;;10.20;99.90;;;;;;5089099;28;20045;-84
2023/03/16 15:48:44;;;;;;;4.70;3.13;;;9.70;99.90;;;;;;5073078;28;20036;-84
2023/03/16 15:51:27;;;;;;;6.40;2.88;;;9.20;99.90;;;;;;5087588;28;20071;-84
2023/03/16 15:53:58;;;;;;;3.95;2.58;;;9.20;99.90;;;;;;5071886;28;20043;-83
2023/03/16 15:56:28;;;;;;;4.55;2.78;;;9.20;99.90;;;;;;5106872;28;20271;-84
2023/03/16 15:58:56;;;;;;;6.78;2.85;;;12.40;99.90;;;;;;5089368;28;20043;-84
2023/03/16 16:01:29;;;;;;;7.22;3.20;;;11.90;99.90;;;;;;5070392;28;20039;-83
2023/03/16 16:03:55;;;;;;;2.78;2.47;;;11.30;99.90;;;;;;5089440;28;20047;-83
2023/03/16 16:06:22;;;;;;;5.38;2.63;;;10.00;99.90;;;;;;5097599;28;20549;-84
2023/03/16 16:08:48;;;;;;;3.92;2.47;;;9.30;99.90;;;;;;5071230;28;20429;-84
2023/03/16 16:11:25;;;;;;;6.78;3.13;;;9.30;99.90;;;;;;5088120;28;20520;-83
2023/03/16 16:13:52;;;;;;;4.25;2.75;;;9.30;99.90;;;;;;5108010;28;20573;-83
2023/03/16 16:16:18;;;;;;;3.85;3.00;;;11.60;99.90;;;;;;5052192;28;20047;-83
2023/03/16 16:18:46;;;;;;;2.85;2.55;;;9.10;99.90;;;;;;5071739;28;20065;-85
2023/03/16 16:21:24;;;;;;;5.15;3.35;;;10.40;99.90;;;;;;5068310;28;20050;-84
2023/03/16 16:23:51;;;;;;;3.92;2.80;;;9.30;99.90;;;;;;5088724;28;20058;-84
2023/03/16 16:26:25;;;;;;;4.40;3.42;;;9.20;99.90;;;;;;5085140;28;20036;-86
2023/03/16 16:28:51;;;;;;;9.57;4.18;;;9.30;99.90;;;;;;5066928;28;20063;-83
2023/03/16 16:31:20;;;;;;;9.00;4.85;;;9.40;99.90;;;;;;5087293;28;20043;-83
2023/03/16 16:33:46;;;;;;;9.10;5.55;;;10.50;99.90;;;;;;4719743;28;10000523;-81
2023/03/16 16:36:19;;;;;;;4.88;2.88;;;11.70;99.90;;;;;;5099583;28;20104;-82
2023/03/16 16:38:45;;;;;;;5.28;2.92;;;11.30;99.90;;;;;;5093154;28;20035;-81
2023/03/16 16:41:25;;;;;;;4.28;2.70;;;9.90;99.90;;;;;;5070743;28;20046;-82
2023/03/16 16:43:52;;;;;;;3.75;2.50;;;9.20;99.90;;;;;;5087684;28;20225;-83
2023/03/16 16:46:23;;;;;;;11.25;2.88;;;10.80;99.90;;;;;;5069195;28;20038;-83
2023/03/16 16:48:58;;;;;;;3.72;2.50;;;9.20;99.90;;;;;;5050358;28;20056;-84
2023/03/16 16:51:34;;;;;;;4.53;2.33;;;9.10;99.90;;;;;;5074411;28;20560;-84
2023/03/16 16:54:01;;;;;;;5.35;2.55;;;9.10;99.90;;;;;;5109749;28;20051;-83
2023/03/16 16:56:34;;;;;;;5.32;2.42;;;9.50;99.90;;;;;;5091238;28;20040;-81
2023/03/16 16:59:09;;;;;;;3.30;2.13;;;10.10;99.90;;;;;;5073550;28;20047;-83
2023/03/16 17:01:35;;;;;;;3.35;1.70;;;9.10;99.90;;;;;;5062930;28;20032;-83
2023/03/16 17:04:02;;;;;;;4.22;2.30;;;9.10;99.90;;;;;;5090732;28;20039;-82
2023/03/16 17:06:29;;;;;;;4.28;2.55;;;11.40;99.90;;;;;;5090029;28;20040;-83
2023/03/16 17:08:55;;;;;;;4.63;2.20;;;8.90;99.90;;;;;;5070664;28;20040;-84
2023/03/16 17:11:25;;;;;;;5.00;2.78;;;11.90;99.90;;;;;;5105480;28;20371;-84
2023/03/16 17:13:52;;;;;;;3.60;2.08;;;11.60;99.90;;;;;;5107854;28;20374;-84
2023/03/16 17:16:21;;;;;;;5.38;3.00;;;8.80;99.90;;;;;;5107632;28;20047;-84
2023/03/16 17:18:48;;;;;;;8.35;2.20;;;11.60;99.90;;;;;;5108032;28;20044;-84
2023/03/16 17:21:18;;;;;;;4.88;2.72;;;10.80;99.90;;;;;;5109127;28;20058;-84
2023/03/16 17:23:45;;;;;;;3.25;2.33;;;10.60;99.90;;;;;;5091130;28;20032;-84
2023/03/16 17:26:23;;;;;;;7.20;2.45;;;8.60;99.90;;;;;;5069874;28;20051;-84
2023/03/16 17:28:59;;;;;;;4.28;1.80;;;8.50;99.90;;;;;;5109934;27;20507;-83
2023/03/16 17:31:33;;;;;;;2.88;1.95;;;8.50;99.90;;;;;;5087499;28;20051;-83
2023/03/16 17:34:13;;;;;;;3.92;1.92;;;8.40;99.90;;;;;;5089777;28;20604;-85
2023/03/16 17:36:38;;;;;;;5.72;2.17;;;8.30;99.90;;;;;;5103222;27;20044;-85
2023/03/16 17:39:10;;;;;;;3.65;2.38;;;11.20;99.90;;;;;;5072758;28;20074;-85
2023/03/16 17:41:36;;;;;;;3.53;2.38;;;8.10;99.90;;;;;;5082529;27;20043;-86
2023/03/16 17:44:04;;;;;;;3.75;2.13;;;11.10;99.90;;;;;;5086435;28;20039;-85
2023/03/16 17:46:33;;;;;;;3.78;1.90;;;11.00;99.90;;;;;;5072933;28;20032;-85
2023/03/16 17:49:00;;;;;;;5.35;2.53;;;;;;;;;;5085620;28;20628;-85
2023/03/16 17:51:26;;;;;;;6.53;2.78;;;8.10;99.90;;;;;;5088984;28;20059;-85
2023/03/16 17:53:54;;;;;;;5.60;2.90;;;;;;;;;;5061403;28;20050;-84
2023/03/16 17:56:25;;;;;;;4.07;2.50;;;8.00;99.90;;;;;;5090288;27;20075;-85
2023/03/16 17:58:57;;;;;;;4.72;2.15;;;8.20;99.90;;;;;;5068137;28;20040;-84
2023/03/16 18:01:34;;;;;;;5.13;2.20;;;10.70;99.90;;;;;;5067681;28;20050;-84
2023/03/16 18:04:00;;;;;;;5.07;1.85;;;9.40;99.90;;;;;;5071258;27;20517;-84
2023/03/16 18:06:30;;;;;;;2.55;1.70;;;7.70;99.90;;;;;;5087210;28;20044;-83
2023/03/16 18:08:58;;;;;;;7.18;3.00;;;7.90;99.90;;;;;;5048416;28;20040;-85
2023/03/16 18:11:34;;;;;;;3.63;2.08;;;7.70;99.90;;;;;;5087997;28;20355;-84
2023/03/16 18:14:03;;;;;;;6.03;2.40;;;7.80;99.90;;;;;;5087047;27;20043;-84
2023/03/16 18:16:30;;;;;;;5.28;2.10;;;8.30;99.90;;;;;;5089015;28;20054;-84
2023/03/16 18:19:03;;;;;;;3.20;2.38;;;7.80;99.90;;;;;;5055984;28;20523;-84
2023/03/16 18:21:29;;;;;;;3.85;1.98;;;8.30;99.90;;;;;;5106398;28;20122;-84
2023/03/16 18:23:55;;;;;;;6.15;2.45;;;10.30;99.90;;;;;;5088076;28;20319;-85
2023/03/16 18:26:29;;;;;;;3.30;2.17;;;11.20;99.90;;;;;;5089040;28;20414;-85
2023/03/16 18:28:56;;;;;;;4.28;2.28;;;7.80;99.90;;;;;;5044544;28;20043;-84
2023/03/16 18:31:26;;;;;;;4.63;2.47;;;10.60;99.90;;;;;;5086626;28;20047;-85
2023/03/16 18:33:58;;;;;;;4.43;1.83;;;9.30;99.90;;;;;;5088258;28;20068;-85
2023/03/16 18:36:32;;;;;;;5.38;1.95;;;7.60;99.90;;;;;;5070972;28;20032;-84
2023/03/16 18:39:00;;;;;;;4.80;2.42;;;7.60;99.90;;;;;;5076313;28;20047;-84
2023/03/16 18:41:32;;;;;;;8.00;2.28;;;7.50;99.90;;;;;;5087216;28;20491;-84
2023/03/16 18:44:01;;;;;;;3.60;2.17;;;7.60;99.90;;;;;;5077656;28;20418;-84
2023/03/16 18:46:32;;;;;;;3.15;2.05;;;7.50;99.90;;;;;;5087577;28;20127;-84
2023/03/16 18:49:02;;;;;;;4.32;2.38;;;7.40;99.90;;;;;;5089145;28;20181;-85
2023/03/16 18:51:32;;;;;;;4.50;2.03;;;7.70;99.90;;;;;;5101080;28;20390;-83
2023/03/16 18:53:58;;;;;;;6.00;2.63;;;7.60;99.90;;;;;;5105021;28;20035;-84
2023/03/16 18:56:26;;;;;;;9.00;2.58;;;10.50;99.90;;;;;;5089296;28;20043;-83
2023/03/16 18:58:53;;;;;;;5.15;2.42;;;7.60;99.90;;;;;;5065267;28;20070;-84
2023/03/16 19:01:33;;;;;;;4.18;2.00;;;8.50;99.90;;;;;;5090079;28;20055;-84
2023/03/16 19:04:05;;;;;;;3.73;2.40;;;7.70;99.90;;;;;;5055852;28;20084;-83
2023/03/16 19:06:36;;;;;;;8.82;2.20;;;7.50;99.90;;;;;;5090493;28;20443;-84
2023/03/16 19:09:20;;;;;;;4.22;2.20;;;7.50;99.90;;;;;;5073598;28;20114;-85
2023/03/16 19:11:49;;;;;;;2.85;1.80;;;7.50;99.90;;;;;;5102102;28;20130;-83
2023/03/16 19:14:18;;;;;;;4.57;2.10;;;7.60;99.90;;;;;;5089576;28;20035;-84
2023/03/16 19:16:44;;;;;;;6.65;2.42;;;;;;;;;;5091072;28;20039;-83
2023/03/16 19:19:10;;;;;;;5.03;2.33;;;7.40;99.90;;;;;;5073304;28;20063;-83
2023/03/16 19:21:40;;;;;;;7.32;5.22;;;7.40;99.90;;;;;;5082832;28;20054;-83
2023/03/16 19:24:09;;;;;;;28.92;12.10;;;7.40;99.90;;;;;;5073840;28;20067;-82
2023/03/16 19:26:38;;;;;;;10.13;4.72;;;7.40;99.90;;;;;;5089834;28;20040;-82
2023/03/16 19:29:10;;;;;;;4.30;2.60;;;7.40;99.90;;;;;;5073374;28;20050;-82
2023/03/16 19:31:41;;;;;;;3.05;2.50;;;7.50;99.90;;;;;;5090048;28;20044;-83
2023/03/16 19:34:42;;;;;;;4.38;2.55;;;7.40;99.90;;;;;;5090620;28;20050;-83
2023/03/16 19:37:38;;;;;;;4.65;2.38;;;7.40;99.90;;;;;;5086871;28;20040;-84
2023/03/16 19:40:59;;;;;;;4.80;2.28;;;7.80;99.90;;;;;;5073318;28;20047;-84
2023/03/16 19:44:26;;;;;;;4.75;2.60;;;7.50;99.90;;;;;;5059806;28;20047;-84
2023/03/16 19:48:04;;;;;;;4.68;2.22;;;7.50;99.90;;;;;;5015602;28;20136;-85
2023/03/16 19:51:04;;;;;;;2.78;2.53;;;7.60;99.90;;;;;;5033724;28;20049;-84
2023/03/16 19:54:20;;;;;;;3.83;2.17;;;7.50;99.90;;;;;;5018896;28;20563;-83
2023/03/16 19:57:30;;;;;;;4.72;2.20;;;7.60;99.90;;;;;;4997052;28;21132;-83
2023/03/16 20:01:10;;;;;;;4.40;2.00;;;7.50;99.90;;;;;;5030677;28;20439;-83
2023/03/16 20:03:56;;;;;;;4.70;2.00;;;7.40;99.90;;;;;;5033441;28;20456;-82
2023/03/16 20:06:23;;;;;;;3.30;2.38;;;;;;;;;;5017897;28;20045;-83
2023/03/16 20:08:50;;;;;;;3.15;1.95;;;7.50;99.90;;;;;;5003630;28;20501;-83
2023/03/16 20:11:26;;;;;;;5.18;2.10;;;7.30;99.90;;;;;;5019214;28;20417;-82
2023/03/16 20:13:52;;;;;;;5.45;2.50;;;7.70;99.90;;;;;;5033140;28;20038;-82
2023/03/16 20:16:28;;;;;;;6.30;2.10;;;9.10;99.90;;;;;;5016885;28;20341;-82
2023/03/16 20:19:00;;;;;;;3.20;1.92;;;7.70;99.90;;;;;;5020349;28;20542;-82
2023/03/16 20:21:26;;;;;;;5.07;2.00;;;5.60;99.90;;;;;;5034204;28;20519;-82
2023/03/16 20:23:55;;;;;;;3.38;1.80;;;;;;;;;;5033374;28;20049;-82
2023/03/16 20:26:31;;;;;;;6.57;2.47;;;8.00;99.90;;;;;;5020435;28;20059;-82
2023/03/16 20:29:01;;;;;;;5.80;2.90;;;10.80;99.90;;;;;;5038199;28;20557;-81
2023/03/16 20:31:33;;;;;;;6.40;2.33;;;5.10;99.90;;;;;;4311955;28;10000720;-84
2023/03/16 20:33:59;;;;;;;3.00;1.80;;;7.70;99.90;;;;;;5025814;28;20110;-81
2023/03/16 20:36:28;;;;;;;3.55;2.05;;;7.70;99.90;;;;;;5026342;28;20048;-82
2023/03/16 20:38:54;;;;;;;5.88;2.40;;;7.70;99.90;;;;;;5092766;28;20135;-82
2023/03/16 20:41:35;;;;;;;5.45;2.45;;;7.90;99.90;;;;;;5077488;28;20489;-82
2023/03/16 20:44:03;;;;;;;2.58;1.45;;;7.70;99.90;;;;;;5093317;28;20031;-83
2023/03/16 20:46:32;;;;;;;5.75;2.13;;;7.70;99.90;;;;;;5093022;28;20495;-81
2023/03/16 20:49:01;;;;;;;2.90;2.08;;;7.60;99.90;;;;;;4738280;28;10000585;-84
2023/03/16 20:51:27;;;;;;;3.22;2.20;;;8.00;99.90;;;;;;5091743;28;20040;-83
2023/03/16 20:53:56;;;;;;;4.70;2.00;;;;;;;;;;5074765;28;20035;-82
2023/03/16 20:56:25;;;;;;;3.20;2.28;;;7.80;99.90;;;;;;5066314;28;20047;-82
2023/03/16 20:58:54;;;;;;;3.30;1.73;;;9.40;99.90;;;;;;5090372;28;20088;-82
2023/03/16 21:01:22;;;;;;;3.30;2.08;;;7.80;99.90;;;;;;5082603;28;20134;-82
2023/03/16 21:03:54;;;;;;;5.63;2.38;;;7.90;99.90;;;;;;5074191;28;20039;-82
2023/03/16 21:06:28;;;;;;;3.50;2.63;;;8.10;99.90;;;;;;5085431;28;20498;-82
2023/03/16 21:08:59;;;;;;;6.22;2.28;;;11.20;99.90;;;;;;5083834;28;20123;-82
2023/03/16 21:11:38;;;;;;;3.30;1.92;;;8.10;99.90;;;;;;5084415;28;20043;-82
2023/03/16 21:14:09;;;;;;;3.55;2.00;;;7.90;99.90;;;;;;5085339;28;20043;-82
2023/03/16 21:16:35;;;;;;;6.10;1.98;;;9.80;99.90;;;;;;5086076;28;20075;-83
2023/03/16 21:19:01;;;;;;;5.20;1.92;;;8.40;99.90;;;;;;5072415;28;21471;-83
2023/03/16 21:21:29;;;;;;;4.43;1.85;;;8.00;99.90;;;;;;5069823;28;20051;-82
2023/03/16 21:23:55;;;;;;;3.40;2.13;;;9.90;99.90;;;;;;5068664;28;20062;-82